DADOS DO TEMPO

ONTEM
Time Temp. Dewp. Hum. Direção Velocidade Wind gust Bar. 1h Prec. 24h Prec.
00:06 14.8 12.5 86 0 0.3 1014.8 0.0000 0.0000
00:16 14.7 12.4 86 0 0.8 1014.9 0.0000 0.0000
00:27 14.6 12.3 86 0 0.8 1015 0.0000 0.0000
00:36 14.6 12.3 86 0 0.8 1015 0.0000 0.0000
00:46 14.5 12.2 86 0 0.8 1015 0.0000 0.0000
00:57 14.4 12.3 87 0 0.8 1015.1 0.0000 0.0000
01:07 14.3 12.2 87 0 0.8 1015 0.0000 0.0000
01:17 14.2 12.1 87 0 0.8 1015 0.0000 0.0000
01:27 14.2 12.1 87 0 0.3 1015 0.0000 0.0000
01:37 14.1 12 87 0 1.1 1014.9 0.0000 0.0000
01:47 14 11.9 87 0 0.8 1014.9 0.0000 0.0000
01:57 14 11.9 87 0 0.3 1014.9 0.0000 0.0000
02:08 13.9 11.8 87 0 1.1 1014.9 0.0000 0.0000
02:17 13.9 11.9 88 156 0.3 1.1 1014.9 0.0000 0.0000
02:27 13.8 11.8 88 0 0.8 1015 0.0000 0.0000
02:37 13.8 11.8 88 0 0.8 1015 0.0000 0.0000
02:48 13.8 11.8 88 0 0.8 1014.9 0.0000 0.0000
02:58 13.8 11.8 88 0 0.8 1014.9 0.0000 0.0000
03:07 13.8 11.8 88 0 1.1 1014.9 0.0000 0.0000
03:18 13.7 11.8 88 0 0.8 1014.6 0.0000 0.0000
03:28 13.7 11.8 88 174 0.3 0.8 1014.7 0.0000 0.0000
03:38 13.6 11.7 88 0 0.3 1014.6 0.0000 0.0000
03:48 13.5 11.6 88 0 0.8 1014.7 0.0000 0.0000
03:58 13.5 11.6 88 0 0.3 1014.6 0.0000 0.0000
04:08 13.4 11.5 88 0 0.3 1014.6 0.0000 0.0000
04:18 13.4 11.5 88 0 0.3 1014.5 0.0000 0.0000
04:29 13.3 11.4 88 175 0.3 0.8 1014.4 0.0000 0.0000
04:39 13.3 11.5 89 0 0.8 1014.5 0.0000 0.0000
04:49 13.3 11.5 89 0 0.8 1014.4 0.0000 0.0000
04:58 13.4 11.6 89 0 0.8 1014.5 0.0000 0.0000
05:09 13.4 11.6 89 0 0.8 1014.4 0.0000 0.0000
05:19 13.4 11.6 89 0 0.8 1014.2 0.0000 0.0000
05:29 13.4 11.6 89 0 0.3 1014.2 0.0000 0.0000
05:39 13.5 11.7 89 0 0.8 1014.2 0.0000 0.0000
05:49 13.4 11.6 89 0 0.8 1014.3 0.0000 0.0000
05:59 13.4 11.6 89 0 0.3 1014.2 0.0000 0.0000
06:09 13.4 11.6 89 0 0.3 1014.2 0.0000 0.0000
06:20 13.5 11.7 89 0 0.8 1014.1 0.0000 0.0000
06:30 13.5 11.7 89 0 0.8 1014.1 0.0000 0.0000
06:39 13.6 11.8 89 0 0.8 1013.9 0.0000 0.0000
06:49 13.6 11.8 89 0 0.3 1014.2 0.0000 0.0000
07:00 13.6 12 90 0 0.8 1014.4 0.0000 0.0000
07:10 13.6 12 90 0 0.8 1014.2 0.0000 0.0000
07:20 13.7 12.1 90 0 0.8 1014.3 0.0000 0.0000
07:30 13.7 12.1 90 0 0.3 1014.3 0.0000 0.0000
07:40 13.8 12.2 90 0 0.8 1014.3 0.0000 0.0000
07:50 13.9 12.3 90 0 0.3 1014.4 0.0000 0.0000
08:00 13.9 12.3 90 0 0.3 1014.5 0.0000 0.0000
08:11 14 12.4 90 0 0.3 1014.5 0.0000 0.0000
08:20 14 12.4 90 0 0.8 1014.5 0.0000 0.0000
08:30 14.1 12.5 90 0 0.8 1014.6 0.0000 0.0000
08:41 14.6 13.3 92 0 0.8 1014.5 0.0000 0.0000
08:51 16.4 15.3 93 0 0.8 1014.5 0.0000 0.0000
09:01 16.7 14.9 89 270 0.3 1.1 1014.5 0.0000 0.0000
09:10 17.3 15.3 88 192 0.3 1.1 1014.4 0.0000 0.0000
09:21 18 16.2 89 0 0.8 1014.5 0.0000 0.0000
09:31 18.2 15.6 85 124 0.3 0.8 1014.6 0.0000 0.0000
09:41 17.9 14.8 82 90 0.3 0.8 1014.6 0.0000 0.0000
09:51 17.7 14.8 83 0 0.8 1014.6 0.0000 0.0000
10:01 17.5 14.6 83 0 0.8 1014.8 0.0000 0.0000
10:11 17.5 14.8 84 0 0.8 1014.8 0.0000 0.0000
10:21 17.6 14.7 83 0 0.8 1014.7 0.0000 0.0000
10:32 17.7 14.8 83 0 0.8 1014.7 0.0000 0.0000
10:42 18 15.1 83 180 0.3 0.8 1014.8 0.0000 0.0000
11:02 18.4 14.5 78 0 0.8 1014.8 0.0000 0.0000
11:12 18.5 14.6 78 0 0.3 1014.7 0.0000 0.0000
11:22 18.4 14.5 78 0 0.8 1014.8 0.0000 0.0000
11:32 18.8 15.3 80 0 1.1 1014.8 0.0000 0.0000
11:42 19.2 15.3 78 161 0.3 1.1 1014.7 0.0000 0.0000
12:02 19.3 15 76 135 0.3 1.7 1014.6 0.0000 0.0000
12:12 19.2 14.5 74 135 0.3 1.1 1014.6 0.0000 0.0000
12:23 19.2 14.7 75 126 0.3 1.1 1014.6 0.0000 0.0000
12:32 19.6 14.8 74 139 0.3 1.4 1014.6 0.0000 0.0000
12:42 19.9 14.9 73 135 0.3 1.1 1014.6 0.0000 0.0000
12:53 19.7 14.7 73 90 0.3 1.1 1014.6 0.0000 0.0000
13:03 19.6 14.4 72 129 0.3 1.4 1014.6 0.0000 0.0000
13:13 19.6 14.6 73 125 0.3 0.8 1014.5 0.0000 0.0000
13:22 19.6 14.6 73 90 0.3 1.4 1014.5 0.0000 0.0000
13:33 19.6 14.6 73 90 0.3 1.1 1014.3 0.0000 0.0000
13:43 19.4 14.7 74 128 0.3 0.8 1014.5 0.0000 0.0000
13:53 19.2 14.7 75 124 0.3 1.4 1014.5 0.0000 0.0000
14:03 19.1 14.6 75 127 0.3 1.1 1014.5 0.0000 0.0000
14:14 19 14.7 76 135 0.3 0.8 1014.4 0.0000 0.0000
14:23 19 14.7 76 135 0.3 0.8 1014.6 0.0000 0.0000
14:33 18.9 14.6 76 135 0.3 1.4 1014.4 0.0000 0.0000
14:44 18.8 14.5 76 135 0.3 0.8 1014.5 0.0000 0.0000
14:54 18.9 14.6 76 135 0.3 1.1 1014.4 0.0000 0.0000
15:04 19.1 14.8 76 90 0.3 0.8 1014.3 0.0000 0.0000
15:14 19.5 15.2 76 140 0.3 0.8 1014.3 0.0000 0.0000
15:24 19.6 14.8 74 90 0.3 1.1 1014.2 0.0000 0.0000
15:34 19.3 14.8 75 130 0.3 1.7 1014.2 0.0000 0.0000
15:44 19.2 14.7 75 90 0.3 1.1 1014.3 0.0000 0.0000
15:55 19.3 15 76 90 0.3 0.8 1014.1 0.0000 0.0000
16:04 19.6 15.1 75 135 0.3 1.1 1014.1 0.0000 0.0000
16:14 19.8 14.8 73 90 0.3 1.1 1014 0.0000 0.0000
16:24 20 15 73 140 0.3 1.1 1014 0.0000 0.0000
16:35 19.6 14.4 72 129 0.3 0.8 1014 0.0000 0.0000
16:45 19.5 14.3 72 90 0.3 0.8 1014 0.0000 0.0000
16:54 19.5 14.3 72 90 0.3 0.8 1013.9 0.0000 0.0000
17:05 19.3 14.1 72 141 0.3 0.8 1013.9 0.0000 0.0000
17:15 19.2 14 72 135 0.3 1.7 1013.9 0.0000 0.0000
17:25 19 13.6 71 90 0.3 1.1 1013.9 0.0000 0.0000
17:35 19 13.8 72 128 0.3 0.8 1013.9 0.0000 0.0000
17:45 18.9 13.7 72 90 0.3 0.8 1013.9 0.0000 0.0000
17:55 18.9 14 73 127 0.3 0.8 1013.9 0.0000 0.0000
18:05 18.9 13.7 72 90 0.3 0.8 1013.9 0.0000 0.0000
18:16 18.8 13.9 73 141 0.3 1.1 1013.9 0.0000 0.0000
18:26 18.7 13.6 72 142 0.3 1.4 1014 0.0000 0.0000
18:35 18.5 13.6 73 140 0.3 0.8 1014 0.0000 0.0000
18:45 18.4 13.7 74 156 0.3 1.1 1013.9 0.0000 0.0000
18:56 18.3 13.6 74 149 0.3 0.8 1014.1 0.0000 0.0000
19:06 18.1 13.6 75 151 0.3 0.8 1014 0.0000 0.0000
19:16 17.9 13.4 75 146 0.3 1.1 1014.1 0.0000 0.0000
19:26 17.7 13.2 75 90 0.3 0.8 1014.1 0.0000 0.0000
19:36 17.5 13 75 126 0.3 0.8 1014.3 0.0000 0.0000
19:46 17.3 13 76 123 0.3 0.8 1014.2 0.0000 0.0000
19:56 17 12.7 76 0 0.8 1014.3 0.0000 0.0000
20:07 16.9 12.8 77 147 0.3 0.8 1014.5 0.0000 0.0000
20:16 16.9 12.8 77 135 0.3 0.8 1014.5 0.0000 0.0000
20:26 16.7 12.7 77 0 0.8 1014.6 0.0000 0.0000
20:36 16.5 12.5 77 127 0.3 0.8 1014.6 0.0000 0.0000
20:47 16.3 12.5 78 135 0.3 0.8 1014.8 0.0000 0.0000
20:57 16.2 12.4 78 0 0.8 1014.8 0.0000 0.0000
21:07 16 12.2 78 127 0.3 0.8 1014.7 0.0000 0.0000
21:17 15.9 12.1 78 0 0.3 1014.8 0.0000 0.0000
21:27 15.7 11.9 78 0 0.3 1014.9 0.0000 0.0000
21:37 15.6 11.8 78 0 0.3 1014.9 0.0000 0.0000
21:47 15.4 11.8 79 0 0.8 1015 0.0000 0.0000
21:58 15.2 11.6 79 0 0.3 1015.1 0.0000 0.0000
22:07 15.1 11.5 79 0 0.8 1015.1 0.0000 0.0000
22:17 15 11.4 79 155 0.3 0.8 1015.1 0.0000 0.0000
22:28 14.8 11.4 80 0 0.3 1015.2 0.0000 0.0000
22:38 14.7 11.3 80 0 0.8 1015.3 0.0000 0.0000
22:48 14.5 11.1 80 168 0.3 0.3 1015.4 0.0000 0.0000
22:57 14.4 11 80 158 0.3 0.8 1015.4 0.0000 0.0000
23:08 14.3 10.9 80 147 0.3 0.8 1015.5 0.0000 0.0000
23:18 14.1 10.7 80 149 0.3 0.8 1015.5 0.0000 0.0000
23:28 14 10.6 80 153 0.3 0.8 1015.5 0.0000 0.0000
23:38 13.9 10.7 81 0 0.8 1015.4 0.0000 0.0000
23:48 13.7 10.5 81 0 0.3 1015.4 0.0000 0.0000
23:58 13.6 10.4 81 0 0.3 1015.4 0.0000

ESTATÍSTICAS DO DIA

2021-09-17
TEMPERATURA
MÉDIA
16.3
MÁXIMO
20.0
16:24
MÍNIMO
13.3
04:29
PRESSÃO
MÉDIA
1014.6
MÁXIMO
1015.5
23:08
MÍNIMO
1013.9
06:39
PONTO DE ORVALHO
MÉDIA
13.0
MÁXIMO
16.2
09:21
MÍNIMO
10.4
23:58
UMIDADE
MÉDIA
81
MÁXIMO
93
08:51
MÍNIMO
71
17:25
VELOCIDADE DOS VENTOS
MÉDIA
0.1
MÁXIMO
0.3
02:17
WIND GUST
MÉDIA
0.8
MÁXIMO
1.7
12:02
DIREÇÃO DOS VENTOS
PREDOMINANTE
SE
31.2%
N
0.0
NE
0.0
E
10.6
SE
31.2
S
5.0
SO
0.0
O
0.7
NO
0.0
PRECIPITAÇÃO
PRECIPITAÇÃO HORÁRIA
0.0
PRECIPITAÇÃO DIÁRIA
0.0
TEMPERATURA (°C)
MÍNIMO
13.3
MÁXIMO
20.0
MÉDIA
16.3
PRESSÃO (hpa)
MÍNIMO
1013.9
MÁXIMO
1015.5
MÉDIA
1014.6
DEVICE